• Join FlightAware (Why Join?)
  • Login
  • US Flag 
04:02AM EDT


 

Airport Tracker/Info


-or-


 

Live Flight TrackerFlight Track Log ✈ HDA802 ✈ 30-May-2012 ✈ VHHH / HKG - ZSPD / PVG

Flight Track Log - Related Links

Times and Time Zones

All times are in EDT time to prevent confusion due to time zone crossing. See the HDA802 flight status page for this flight to view local times or setup timezone preferences in your user account.

Time Position Orientation Groundspeed Altitude Reporting Facility
EDT Latitude Longitude Course Direction KTS MPH feet Rate Location/Type
08:19PM 23.7801 115.1222 37° Northeast  Level Estimated
08:20PM 23.8452 115.1764 37° Northeast  Level Estimated
08:21PM 23.9103 115.2307 37° Northeast  Level Estimated
08:22PM 23.9753 115.2850 37° Northeast  Level Estimated
08:23PM 24.0403 115.3394 37° Northeast  Level Estimated
08:24PM 24.1053 115.3939 37° Northeast  Level Estimated
08:25PM 24.1703 115.4483 37° Northeast  Level Estimated
08:26PM 24.2353 115.5029 37° Northeast  Level Estimated
08:27PM 24.3002 115.5575 37° Northeast  Level Estimated
08:28PM 24.3651 115.6121 38° Northeast  Level Estimated
08:29PM 24.4300 115.6668 38° Northeast  Level Estimated
08:30PM 24.4949 115.7216 38° Northeast  Level Estimated
08:31PM 24.5598 115.7764 38° Northeast  Level Estimated
08:32PM 24.6246 115.8313 38° Northeast  Level Estimated
08:33PM 24.6894 115.8863 38° Northeast  Level Estimated
08:34PM 24.7542 115.9413 38° Northeast  Level Estimated
08:35PM 24.8190 115.9963 38° Northeast  Level Estimated
08:36PM 24.8838 116.0514 38° Northeast  Level Estimated
08:37PM 24.9485 116.1066 38° Northeast  Level Estimated
08:38PM 25.0132 116.1618 38° Northeast  Level Estimated
08:39PM 25.0779 116.2171 38° Northeast  Level Estimated
08:40PM 25.1426 116.2724 38° Northeast  Level Estimated
08:41PM 25.2073 116.3278 38° Northeast  Level Estimated
08:42PM 25.2719 116.3833 38° Northeast  Level Estimated
08:43PM 25.3365 116.4388 38° Northeast  Level Estimated
08:44PM 25.4011 116.4944 38° Northeast  Level Estimated
08:45PM 25.4657 116.5500 38° Northeast  Level Estimated
08:46PM 25.5303 116.6057 38° Northeast  Level Estimated
08:47PM 25.5948 116.6615 38° Northeast  Level Estimated
08:48PM 25.6593 116.7173 38° Northeast  Level Estimated
08:49PM 25.7238 116.7732 38° Northeast  Level Estimated
08:50PM 25.7883 116.8291 38° Northeast  Level Estimated
08:51PM 25.8527 116.8851 38° Northeast  Level Estimated
08:52PM 25.9172 116.9412 38° Northeast  Level Estimated
08:53PM 25.9816 116.9973 38° Northeast  Level Estimated
08:54PM 26.0459 117.0535 38° Northeast  Level Estimated
08:55PM 26.1103 117.1098 38° Northeast  Level Estimated
08:56PM 26.1747 117.1661 38° Northeast  Level Estimated
08:57PM 26.2390 117.2224 38° Northeast  Level Estimated
08:58PM 26.3033 117.2789 38° Northeast  Level Estimated
08:59PM 26.3675 117.3354 38° Northeast  Level Estimated
09:00PM 26.4318 117.3919 38° Northeast  Level Estimated
09:01PM 26.4960 117.4485 38° Northeast  Level Estimated
09:02PM 26.5602 117.5052 38° Northeast  Level Estimated
09:03PM 26.6244 117.5620 38° Northeast  Level Estimated
09:04PM 26.6886 117.6188 38° Northeast  Level Estimated
09:05PM 26.7527 117.6757 38° Northeast  Level Estimated
09:06PM 26.8169 117.7326 38° Northeast  Level Estimated
09:07PM 26.8810 117.7896 38° Northeast  Level Estimated
09:08PM 26.9450 117.8467 38° Northeast  Level Estimated
09:09PM 27.0091 117.9038 38° Northeast  Level Estimated
09:10PM 27.0731 117.9610 39° Northeast  Level Estimated
09:11PM 27.1371 118.0183 39° Northeast  Level Estimated
09:12PM 27.2011 118.0756 39° Northeast  Level Estimated
09:13PM 27.2650 118.1330 39° Northeast  Level Estimated
09:14PM 27.3290 118.1905 39° Northeast  Level Estimated
09:15PM 27.3929 118.2480 39° Northeast  Level Estimated
09:16PM 27.4568 118.3056 39° Northeast  Level Estimated
09:17PM 27.5206 118.3633 39° Northeast  Level Estimated
09:18PM 27.5845 118.4210 39° Northeast  Level Estimated
09:19PM 27.6483 118.4788 39° Northeast  Level Estimated
09:20PM 27.7121 118.5367 39° Northeast  Level Estimated
09:21PM 27.7759 118.5946 39° Northeast  Level Estimated
09:22PM 27.8396 118.6526 39° Northeast  Level Estimated
09:23PM 27.9033 118.7106 39° Northeast  Level Estimated
09:24PM 27.9670 118.7688 39° Northeast  Level Estimated
09:25PM 28.0307 118.8270 39° Northeast  Level Estimated
09:26PM 28.0943 118.8853 39° Northeast  Level Estimated
09:27PM 28.1579 118.9436 39° Northeast  Level Estimated
09:28PM 28.2215 119.0020 39° Northeast  Level Estimated
09:29PM 28.2851 119.0605 39° Northeast  Level Estimated
09:30PM 28.3487 119.1190 39° Northeast  Level Estimated
09:31PM 28.4122 119.1777 39° Northeast  Level Estimated
09:32PM 28.4757 119.2364 39° Northeast  Level Estimated
09:33PM 28.5392 119.2951 39° Northeast  Level Estimated
09:34PM 28.6026 119.3540 39° Northeast  Level Estimated
09:35PM 28.6660 119.4128 39° Northeast  Level Estimated
09:36PM 28.7294 119.4718 39° Northeast  Level Estimated
09:37PM 28.7928 119.5309 39° Northeast  Level Estimated
09:38PM 28.8561 119.5900 39° Northeast  Level Estimated
09:39PM 28.9194 119.6492 39° Northeast  Level Estimated
09:40PM 28.9827 119.7084 39° Northeast  Level Estimated
09:41PM 29.0460 119.7678 39° Northeast  Level Estimated
09:42PM 29.1092 119.8272 39° Northeast  Level Estimated
09:43PM 29.1724 119.8867 39° Northeast  Level Estimated
09:44PM 29.2356 119.9462 39° Northeast  Level Estimated
09:45PM 29.2988 120.0058 39° Northeast  Level Estimated
09:46PM 29.3619 120.0655 40° Northeast  Level Estimated
09:47PM 29.4250 120.1253 40° Northeast  Level Estimated
09:48PM 29.4881 120.1852 40° Northeast  Level Estimated
09:49PM 29.5512 120.2451 40° Northeast  Level Estimated
09:50PM 29.6142 120.3051 40° Northeast  Level Estimated
09:51PM 29.6772 120.3652 40° Northeast  Level Estimated
09:52PM 29.7402 120.4253 40° Northeast  Level Estimated
09:53PM 29.8031 120.4855 40° Northeast  Level Estimated
09:54PM 29.8660 120.5458 40° Northeast  Level Estimated
09:55PM 29.9289 120.6062 40° Northeast  Level Estimated
09:56PM 29.9918 120.6667 40° Northeast  Level Estimated
09:57PM 30.0546 120.7272 40° Northeast  Level Estimated
09:58PM 30.1174 120.7878 40° Northeast  Level Estimated
09:59PM 30.1802 120.8485 40° Northeast  Level Estimated
10:00PM 30.2430 120.9092 40° Northeast  Level Estimated
10:01PM 30.3057 120.9701 40° Northeast  Level Estimated
10:02PM 30.3684 121.0310 40° Northeast  Level Estimated
10:03PM 30.4310 121.0920 40° Northeast  Level Estimated
10:04PM 30.4937 121.1531 40° Northeast  Level Estimated
10:05PM 30.5563 121.2142 40° Northeast  Level Estimated
10:06PM 30.6189 121.2755 40° Northeast  Level Estimated
10:07PM 30.6814 121.3368 40° Northeast  Level Estimated
10:08PM 30.7439 121.3982 40° Northeast  Level Estimated
10:09PM 30.8064 121.4596 40° Northeast  Level Estimated
10:10PM 30.8689 121.5212 40° Northeast  Level Estimated
10:11PM 30.9313 121.5828 40° Northeast  Level Estimated
10:12PM 30.9937 121.6445 40° Northeast  Level Estimated
10:13PM 31.0561 121.7063 40° Northeast  Level Estimated
10:14PM 31.1185 121.7682 40° Northeast  Level Estimated
10:15PM 31.1808 121.8301 220° Southwest  Level Estimated
10:16PM 31.1185 121.7682 40° Northeast  Level Estimated
10:17PM 31.1808 121.8301 220° Southwest  Level Estimated
10:18PM 31.1185 121.7682 40° Northeast  Level Estimated
10:19PM 31.1808 121.8301 220° Southwest  Level Estimated
10:20PM 31.1185 121.7682 40° Northeast  Level Estimated
10:21PM 31.1808 121.8301 220° Southwest  Level Estimated
10:22PM 31.1171 121.7668 40° Northeast  Level Estimated
10:23PM 31.1808 121.8301 220° Southwest  Level Estimated
10:24PM 31.1171 121.7668 40° Northeast  Level Estimated
10:25PM 31.1808 121.8301 220° Southwest  Level Estimated
10:26PM 31.1171 121.7668 40° Northeast  Level Estimated
10:27PM 31.1808 121.8301 40° Northeast  Level Estimated